Time;durP1;ratioP1;P1;durP2;ratioP2;P2;SDS_P1;SDS_P2;PMS_P1;PMS_P2;Temp;Humidity;BMP_temperature;BMP_pressure;BME280_temperature;BME280_humidity;BME280_pressure;Samples;Min_cycle;Max_cycle;Signal;HPM_P1;HPM_P2
2024/02/21 00:00:17;;;;;;;28.43;13.17;;;;;;;1.82;69.25;101232.44;123673;1099;104268;-81
2024/02/21 00:03:08;;;;;;;30.87;14.30;;;;;;;1.80;68.75;101233.20;123706;1099;104421;-81
2024/02/21 00:05:40;;;;;;;32.30;13.67;;;;;;;1.80;68.86;101229.72;123764;1099;104337;-79
2024/02/21 00:08:11;;;;;;;27.30;12.95;;;;;;;1.77;69.34;101224.30;123612;1099;104246;-81
2024/02/21 00:10:42;;;;;;;22.57;11.77;;;;;;;1.78;69.35;101229.59;123790;1099;104357;-81
2024/02/21 00:13:13;;;;;;;26.93;12.63;;;;;;;1.80;69.79;101227.13;123656;1099;104283;-81
2024/02/21 00:15:44;;;;;;;28.00;12.90;;;;;;;1.80;69.30;101228.03;123760;1099;104214;-79
2024/02/21 00:18:16;;;;;;;42.27;13.87;;;;;;;1.80;69.71;101228.03;123669;1099;104412;-80
2024/02/21 00:20:48;;;;;;;38.87;13.77;;;;;;;1.80;69.25;101222.85;123527;1099;104315;-80
2024/02/21 00:23:19;;;;;;;26.77;12.20;;;;;;;1.79;69.69;101223.66;123659;1097;104283;-80
2024/02/21 00:25:51;;;;;;;26.90;12.45;;;;;;;1.79;69.61;101221.06;123640;1099;104347;-80
2024/02/21 00:28:22;;;;;;;28.23;13.10;;;;;;;1.78;69.35;101223.52;123727;1099;104405;-80
2024/02/21 00:30:54;;;;;;;26.40;13.03;;;;;;;1.77;69.65;101217.42;123633;1099;104670;-80
2024/02/21 00:33:25;;;;;;;29.67;13.53;;;;;;;1.75;69.54;101221.58;123781;1099;104326;-80
2024/02/21 00:35:56;;;;;;;29.07;13.20;;;;;;;1.73;69.51;101217.05;123702;1099;104354;-80
2024/02/21 00:38:28;;;;;;;30.80;14.30;;;;;;;1.70;69.78;101211.62;123607;1099;104347;-80
2024/02/21 00:40:59;;;;;;;32.53;14.03;;;;;;;1.66;69.56;101210.47;123612;1099;104275;-80
2024/02/21 00:43:30;;;;;;;28.97;13.53;;;;;;;1.66;69.52;101206.98;123583;1099;104335;-80
2024/02/21 00:46:01;;;;;;;30.53;13.40;;;;;;;1.65;69.84;101206.06;123578;1099;104332;-81
2024/02/21 00:48:32;;;;;;;26.20;13.03;;;;;;;1.64;70.16;101209.45;123634;1098;104680;-79
2024/02/21 00:51:06;;;;;;;30.03;13.40;;;;;;;1.63;70.07;101205.04;123751;1099;104277;-79
2024/02/21 00:53:38;;;;;;;30.82;14.00;;;;;;;1.64;69.92;101204.27;123790;1099;104354;-79
2024/02/21 00:56:09;;;;;;;30.27;13.60;;;;;;;1.63;70.29;101193.80;123462;1099;104466;-80
2024/02/21 00:58:43;;;;;;;26.23;12.20;;;;;;;1.63;69.97;101199.86;123729;1098;104272;-79
2024/02/21 01:01:15;;;;;;;28.60;12.37;;;;;;;1.63;70.18;101196.39;123656;1098;104322;-80
2024/02/21 01:03:46;;;;;;;28.37;12.67;;;;;;;1.65;70.37;101187.05;123623;1099;104300;-79
2024/02/21 01:06:17;;;;;;;26.07;12.87;;;;;;;1.63;70.51;101184.34;123737;1099;104285;-80
2024/02/21 01:08:49;;;;;;;26.57;12.57;;;;;;;1.63;70.33;101183.45;123781;1099;104294;-80
2024/02/21 01:11:20;;;;;;;24.33;11.90;;;;;;;1.63;70.41;101179.17;123645;1099;104358;-80
2024/02/21 01:13:53;;;;;;;25.73;12.13;;;;;;;1.64;70.52;101174.89;123646;1099;104401;-79
2024/02/21 01:16:24;;;;;;;24.60;10.70;;;;;;;1.64;70.23;101173.23;123711;1099;104300;-80
2024/02/21 01:18:55;;;;;;;24.73;10.77;;;;;;;1.65;70.39;101171.53;123677;1098;104323;-79
2024/02/21 01:21:26;;;;;;;27.77;12.20;;;;;;;1.66;70.74;101170.77;123660;1098;104478;-79
2024/02/21 01:23:57;;;;;;;25.33;11.27;;;;;;;1.65;71.07;101174.12;123703;1098;104217;-80
2024/02/21 01:26:28;;;;;;;25.33;11.33;;;;;;;1.65;70.84;101169.84;123783;1099;104278;-79
2024/02/21 01:29:00;;;;;;;24.67;11.30;;;;;;;1.66;71.03;101166.48;123595;1099;104246;-80
2024/02/21 01:31:32;;;;;;;23.57;11.20;;;;;;;1.67;71.12;101163.13;123804;1099;104360;-80
2024/02/21 01:34:03;;;;;;;24.70;10.80;;;;;;;1.67;71.16;101170.89;123711;1099;104392;-80
2024/02/21 01:36:34;;;;;;;24.77;11.67;;;;;;;1.67;71.16;101163.13;123627;1099;105585;-80
2024/02/21 01:39:05;;;;;;;25.27;11.53;;;;;;;1.70;71.06;101160.80;123609;1099;104268;-80
2024/02/21 01:41:36;;;;;;;29.00;11.67;;;;;;;1.71;71.28;101165.17;123617;1099;104718;-80
2024/02/21 01:44:08;;;;;;;23.33;11.63;;;;;;;1.71;71.48;101159.99;123782;1099;104262;-80
2024/02/21 01:46:39;;;;;;;26.53;11.63;;;;;;;1.72;71.38;101156.64;123800;1099;104355;-80
2024/02/21 01:49:11;;;;;;;25.10;12.13;;;;;;;1.74;70.96;101149.89;123913;1099;107072;-80
2024/02/21 01:51:42;;;;;;;23.83;10.67;;;;;;;1.76;71.68;101161.30;123750;1099;104280;-80
2024/02/21 01:54:17;;;;;;;24.07;10.70;;;;;;;1.76;71.47;101152.61;123677;1099;104229;-80
2024/02/21 01:56:49;;;;;;;25.53;12.03;;;;;;;1.76;71.27;101158.70;123321;1099;104395;-80
2024/02/21 01:59:22;;;;;;;28.10;11.87;;;;;;;1.78;72.33;101154.55;123524;1099;104383;-80
2024/02/21 02:01:56;;;;;;;26.80;11.80;;;;;;;1.80;71.99;101140.04;123712;1099;104271;-80
2024/02/21 02:04:27;;;;;;;26.02;11.53;;;;;;;1.81;71.92;101140.97;123780;1099;104207;-80
2024/02/21 02:07:00;;;;;;;26.37;11.17;;;;;;;1.81;71.64;101135.80;123798;1099;104271;-80
2024/02/21 02:09:32;;;;;;;24.60;11.57;;;;;;;1.82;71.75;101134.98;123683;1099;104344;-80
2024/02/21 02:12:04;;;;;;;23.80;10.97;;;;;;;1.82;72.20;101137.58;123583;1099;104430;-80
2024/02/21 02:14:35;;;;;;;25.47;11.27;;;;;;;1.82;72.35;101141.86;123526;1099;104357;-80
2024/02/21 02:17:06;;;;;;;25.10;10.47;;;;;;;1.84;72.29;101140.29;123485;1099;104363;-80
2024/02/21 02:19:37;;;;;;;26.50;11.07;;;;;;;1.87;72.35;101136.29;123701;1099;111739;-80
2024/02/21 02:22:19;;;;;;;24.47;10.77;;;;;;;1.89;72.21;101134.72;123662;1099;104242;-79
2024/02/21 02:24:50;;;;;;;23.50;11.10;;;;;;;1.92;72.44;101144.42;123814;1099;104392;-80
2024/02/21 02:27:22;;;;;;;24.63;10.93;;;;;;;1.92;72.84;101150.50;123626;1099;104280;-80
2024/02/21 02:29:53;;;;;;;24.00;11.10;;;;;;;1.87;72.71;101154.41;123582;1099;104357;-80
2024/02/21 02:32:25;;;;;;;22.83;11.30;;;;;;;1.84;72.12;101161.92;123319;1099;104405;-80
2024/02/21 02:34:57;;;;;;;26.97;12.80;;;;;;;1.85;72.63;101157.64;123427;1099;104332;-80
2024/02/21 02:37:28;;;;;;;32.47;13.03;;;;;;;1.86;72.42;101160.34;123581;1098;104842;-79
2024/02/21 02:39:59;;;;;;;31.13;14.43;;;;;;;1.86;72.54;101155.17;123614;1099;104344;-79
2024/02/21 02:42:30;;;;;;;30.00;13.07;;;;;;;1.87;72.51;101149.23;123344;1099;104449;-80
2024/02/21 02:45:01;;;;;;;28.17;12.27;;;;;;;1.88;72.65;101163.06;123697;1099;104278;-80
2024/02/21 02:47:34;;;;;;;27.03;13.90;;;;;;;1.89;72.44;101164.88;123612;1099;104249;-80
2024/02/21 02:50:07;;;;;;;27.00;12.67;;;;;;;1.89;72.67;101175.23;123646;1099;104293;-79
2024/02/21 02:52:39;;;;;;;30.50;13.87;;;;;;;1.87;73.26;101171.59;123728;1099;104354;-80
2024/02/21 02:55:10;;;;;;;28.90;13.07;;;;;;;1.87;72.79;101169.94;123666;1099;104340;-80
2024/02/21 02:57:42;;;;;;;31.83;13.77;;;;;;;1.91;72.97;101174.55;123625;1099;104294;-80
2024/02/21 03:00:16;;;;;;;30.27;13.40;;;;;;;1.96;73.13;101169.75;123648;1099;104347;-80
2024/02/21 03:02:50;;;;;;;28.17;13.45;;;;;;;1.98;72.91;101174.28;123770;1099;104239;-80
2024/02/21 03:05:20;;;;;;;;;;;;;;;1.99;74.43;101164.83;123775;1099;104296;-80
2024/02/21 03:07:52;;;;;;;26.40;12.93;;;;;;;2.02;72.82;101171.94;123668;1097;104281;-79
2024/02/21 03:10:23;;;;;;;26.77;13.17;;;;;;;2.07;73.47;101174.14;123589;1099;104288;-79
2024/02/21 03:12:55;;;;;;;30.30;14.03;;;;;;;2.10;73.51;101171.80;123651;1099;104242;-79
2024/02/21 03:15:26;;;;;;;26.90;13.07;;;;;;;2.15;72.68;101172.13;123691;1099;104242;-79
2024/02/21 03:17:57;;;;;;;27.43;12.83;;;;;;;2.21;73.44;101167.44;123634;1099;104344;-80
2024/02/21 03:20:28;;;;;;;26.57;13.27;;;;;;;2.22;73.05;101168.37;123670;1099;104293;-80
2024/02/21 03:22:59;;;;;;;28.67;13.37;;;;;;;2.24;73.12;101178.05;123652;1099;104328;-80
2024/02/21 03:25:30;;;;;;;26.73;13.33;;;;;;;2.29;73.34;101178.41;123699;1099;104255;-80
2024/02/21 03:28:01;;;;;;;27.20;13.60;;;;;;;2.33;73.13;101183.06;123395;1099;104360;-80
2024/02/21 03:30:33;;;;;;;27.20;13.00;;;;;;;2.37;73.51;101179.02;123803;1099;104357;-80
2024/02/21 03:33:05;;;;;;;27.60;12.90;;;;;;;2.37;73.54;101181.61;123727;1099;104310;-80
2024/02/21 03:35:36;;;;;;;27.93;13.37;;;;;;;2.36;73.44;101172.95;123698;1099;104255;-81
2024/02/21 03:38:07;;;;;;;28.73;13.87;;;;;;;2.38;73.62;101173.07;123766;1098;104308;-80
2024/02/21 03:40:39;;;;;;;26.73;12.83;;;;;;;2.38;73.54;101173.96;123588;1099;104296;-80
2024/02/21 03:43:10;;;;;;;26.30;12.90;;;;;;;2.41;73.34;101169.02;123601;1099;104715;-80
2024/02/21 03:45:41;;;;;;;27.03;11.97;;;;;;;2.45;73.63;101165.91;123736;1099;104491;-81
2024/02/21 03:48:12;;;;;;;28.40;12.40;;;;;;;2.49;73.79;101161.86;123819;1099;104361;-82
2024/02/21 03:50:44;;;;;;;23.53;12.33;;;;;;;2.49;74.59;101155.02;124050;1099;104288;-81
2024/02/21 03:53:15;;;;;;;27.73;12.87;;;;;;;2.52;73.57;101162.10;123803;1099;104736;-80
2024/02/21 03:55:46;;;;;;;39.93;13.80;;;;;;;2.54;74.32;101157.04;123664;1099;104332;-80
2024/02/21 03:58:17;;;;;;;38.77;13.10;;;;;;;2.55;73.93;101166.63;123739;1099;104344;-81
2024/02/21 04:00:49;;;;;;;29.25;13.65;;;;;;;2.56;73.81;101166.75;123731;1099;104390;-80
2024/02/21 04:03:20;;;;;;;32.17;13.00;;;;;;;2.58;74.36;101177.23;123688;1099;104466;-79
2024/02/21 04:05:52;;;;;;;27.20;12.63;;;;;;;2.54;73.97;101178.69;123676;1099;104310;-80
2024/02/21 04:08:25;;;;;;;25.80;12.37;;;;;;;2.51;74.29;101174.16;123624;1099;104226;-81
2024/02/21 04:10:59;;;;;;;27.57;13.93;;;;;;;2.48;74.21;101173.92;123725;1099;104377;-81
2024/02/21 04:13:31;;;;;;;29.05;13.45;;;;;;;2.46;74.02;101175.50;123672;1099;104351;-81
2024/02/21 04:16:03;;;;;;;30.85;13.20;;;;;;;2.44;73.85;101181.33;123658;1099;104245;-80
2024/02/21 04:18:34;;;;;;;53.77;15.97;;;;;;;2.41;74.32;101181.98;123895;1099;104310;-80
2024/02/21 04:21:06;;;;;;;45.80;15.57;;;;;;;2.40;74.23;101192.22;123614;1098;104374;-80
2024/02/21 04:23:37;;;;;;;30.03;13.10;;;;;;;2.34;74.55;101182.30;123569;1099;104323;-80
2024/02/21 04:26:08;;;;;;;30.03;14.13;;;;;;;2.30;74.18;101180.23;123624;1099;104242;-80
2024/02/21 04:28:39;;;;;;;29.87;14.37;;;;;;;2.26;74.68;101184.27;123689;1099;104249;-80
2024/02/21 04:31:11;;;;;;;31.37;13.17;;;;;;;2.22;74.27;101184.80;123749;1099;104267;-80
2024/02/21 04:33:42;;;;;;;29.40;13.43;;;;;;;2.19;74.71;101187.14;123644;1099;104300;-80
2024/02/21 04:36:13;;;;;;;32.85;14.35;;;;;;;2.16;74.38;101192.97;123640;1099;104306;-80
2024/02/21 04:38:45;;;;;;;29.00;14.30;;;;;;;2.14;74.46;101189.36;123878;1099;104267;-79
2024/02/21 04:41:16;;;;;;;34.83;15.77;;;;;;;2.12;74.49;101184.83;123760;1099;104355;-80
2024/02/21 04:43:48;;;;;;;29.67;13.63;;;;;;;2.07;74.05;101191.33;123684;1098;104278;-80
2024/02/21 04:46:19;;;;;;;31.13;14.20;;;;;;;2.07;74.67;101199.09;123735;1099;104265;-80
2024/02/21 04:48:51;;;;;;;33.00;14.50;;;;;;;2.07;74.12;101201.69;123699;1098;104721;-80
2024/02/21 04:51:23;;;;;;;30.20;13.70;;;;;;;2.07;74.65;101212.97;123690;1099;104283;-80
2024/02/21 04:53:54;;;;;;;30.43;13.80;;;;;;;2.03;74.64;101210.01;123677;1099;104262;-80
2024/02/21 04:56:25;;;;;;;33.73;14.37;;;;;;;1.98;74.55;101215.70;123803;1099;104271;-81
2024/02/21 04:58:56;;;;;;;30.13;13.80;;;;;;;1.94;74.91;101218.81;123628;1098;104246;-80
2024/02/21 05:01:29;;;;;;;33.30;15.07;;;;;;;1.92;75.04;101222.08;123726;1099;104254;-81
2024/02/21 05:04:00;;;;;;;33.53;15.03;;;;;;;1.93;74.90;101218.69;123646;1099;104226;-80
2024/02/21 05:06:31;;;;;;;30.57;14.50;;;;;;;1.95;74.70;101220.63;123597;1099;104319;-79
2024/02/21 05:09:03;;;;;;;38.20;15.93;;;;;;;1.97;74.87;101215.58;123712;1098;104350;-79
2024/02/21 05:11:34;;;;;;;39.53;15.73;;;;;;;2.01;74.96;101229.66;123942;1099;104457;-80
2024/02/21 05:14:05;;;;;;;30.90;15.17;;;;;;;2.04;74.90;101227.33;123815;1099;104354;-80
2024/02/21 05:16:36;;;;;;;30.70;14.90;;;;;;;2.06;74.96;101223.20;123874;1099;104341;-79
2024/02/21 05:19:08;;;;;;;32.93;16.03;;;;;;;2.08;75.20;101225.11;124019;1098;104261;-79
2024/02/21 05:21:39;;;;;;;33.83;15.93;;;;;;;2.11;75.19;101217.59;123872;1099;104307;-80
2024/02/21 05:24:10;;;;;;;35.40;14.95;;;;;;;2.14;75.32;101225.61;124101;1099;104317;-79
2024/02/21 05:26:41;;;;;;;31.40;15.67;;;;;;;2.17;75.58;101224.97;124376;1099;104220;-80
2024/02/21 05:29:13;;;;;;;39.67;16.13;;;;;;;2.21;75.64;101236.46;123958;1099;104357;-80
2024/02/21 05:31:58;;;;;;;32.85;15.35;;;;;;;2.24;75.48;101237.61;124032;1099;104644;-79
2024/02/21 05:34:32;;;;;;;35.80;16.47;;;;;;;2.27;75.26;101226.60;124190;1099;104222;-80
2024/02/21 05:37:03;;;;;;;35.47;17.20;;;;;;;2.32;75.69;101235.64;123810;1099;104226;-80
2024/02/21 05:39:34;;;;;;;37.83;17.03;;;;;;;2.35;74.92;101235.88;123800;1099;104239;-79
2024/02/21 05:42:06;;;;;;;34.87;17.57;;;;;;;2.39;75.32;101235.36;123870;1099;104267;-79
2024/02/21 05:44:37;;;;;;;38.43;17.13;;;;;;;2.43;75.72;101226.14;123875;1099;104229;-79
2024/02/21 05:47:10;;;;;;;35.77;18.70;;;;;;;2.48;75.24;101230.91;124093;1099;104267;-80
2024/02/21 05:49:42;;;;;;;36.53;18.20;;;;;;;2.54;75.89;101238.28;124029;1099;104258;-79
2024/02/21 05:52:13;;;;;;;42.50;18.57;;;;;;;2.59;76.04;101241.23;124067;1098;104195;-79
2024/02/21 05:54:44;;;;;;;37.87;19.83;;;;;;;2.63;75.61;101235.50;123856;1099;104268;-79
2024/02/21 05:57:19;;;;;;;37.70;17.57;;;;;;;2.66;76.13;101233.15;124089;1099;104344;-80
2024/02/21 06:00:11;;;;;;;39.87;17.53;;;;;;;2.67;75.47;101232.38;125079;1099;104392;-80
2024/02/21 06:02:45;;;;;;;49.57;20.43;;;;;;;2.72;75.54;101237.92;124437;1099;104213;-81
2024/02/21 06:05:17;;;;;;;40.57;18.97;;;;;;;2.77;76.16;101237.48;124365;1099;104242;-80
2024/02/21 06:07:48;;;;;;;37.80;19.00;;;;;;;2.80;76.16;101229.05;124304;1099;104277;-80
2024/02/21 06:10:22;;;;;;;37.57;18.53;;;;;;;2.87;75.98;101233.95;124605;1099;104249;-81
2024/02/21 06:12:54;;;;;;;38.98;18.45;;;;;;;2.93;76.13;101236.09;124486;1098;102582;-81
2024/02/21 06:15:28;;;;;;;35.67;17.73;;;;;;;2.97;75.95;101222.59;124691;1098;104200;-81
2024/02/21 06:17:59;;;;;;;37.40;17.95;;;;;;;3.00;76.56;101230.61;124838;1099;104268;-78
2024/02/21 06:20:31;;;;;;;34.77;17.37;;;;;;;3.05;76.80;101232.79;124713;1099;104316;-79
2024/02/21 06:23:02;;;;;;;33.70;17.97;;;;;;;3.14;76.49;101235.17;124652;1099;105447;-79
2024/02/21 06:25:34;;;;;;;34.40;17.37;;;;;;;3.23;76.22;101233.28;124248;1099;104361;-80
2024/02/21 06:28:06;;;;;;;32.27;17.13;;;;;;;3.34;76.28;101233.22;124740;1099;104248;-79
2024/02/21 06:30:39;;;;;;;30.60;16.30;;;;;;;3.45;76.53;101232.34;124713;1099;104197;-80
2024/02/21 06:33:11;;;;;;;34.70;18.20;;;;;;;3.57;77.10;101242.75;124714;1099;105663;-80
2024/02/21 06:35:45;;;;;;;33.87;17.30;;;;;;;3.66;77.34;101242.52;124639;1099;104239;-80
2024/02/21 06:38:17;;;;;;;35.17;18.00;;;;;;;3.78;76.89;101240.84;125235;1099;101906;-78
2024/02/21 06:40:52;;;;;;;34.77;18.93;;;;;;;3.87;77.14;101238.94;125172;1099;104242;-79
2024/02/21 06:43:23;;;;;;;35.40;18.90;;;;;;;3.97;77.28;101240.52;124972;1098;104238;-79
2024/02/21 06:45:56;;;;;;;34.53;17.37;;;;;;;4.10;76.62;101243.23;125055;1099;104245;-79
2024/02/21 06:48:30;;;;;;;36.57;17.70;;;;;;;4.23;76.83;101237.23;125171;1098;104268;-80
2024/02/21 06:51:03;;;;;;;34.00;15.95;;;;;;;4.38;77.16;101228.73;125193;1099;104229;-81
2024/02/21 06:53:34;;;;;;;34.10;16.77;;;;;;;4.53;77.08;101235.04;125171;1099;104260;-80
2024/02/21 06:56:06;;;;;;;35.97;17.63;;;;;;;4.64;77.54;101234.14;125427;1099;102137;-79
2024/02/21 06:58:38;;;;;;;43.70;16.80;;;;;;;4.76;77.10;101239.28;124560;1099;104351;-83
2024/02/21 07:01:09;;;;;;;36.63;16.90;;;;;;;4.88;76.99;101238.33;125240;1099;104217;-79
2024/02/21 07:03:41;;;;;;;36.43;16.50;;;;;;;4.97;76.92;101242.50;124839;1099;104168;-79
2024/02/21 07:06:12;;;;;;;33.13;16.63;;;;;;;5.07;77.32;101236.23;125268;1099;104076;-81
2024/02/21 07:08:43;;;;;;;31.30;15.57;;;;;;;5.17;76.91;101232.56;125420;1099;104210;-79
2024/02/21 07:11:15;;;;;;;37.97;16.47;;;;;;;5.27;77.17;101237.63;125558;1099;104271;-82
2024/02/21 07:13:46;;;;;;;30.60;15.40;;;;;;;5.35;76.34;101233.83;125318;1099;102895;-79
2024/02/21 07:16:17;;;;;;;26.80;14.10;;;;;;;5.47;77.12;101235.45;125230;1099;104297;-78
2024/02/21 07:18:49;;;;;;;25.70;13.17;;;;;;;5.54;76.72;101235.98;125147;1098;104062;-79
2024/02/21 07:21:20;;;;;;;27.30;13.20;;;;;;;5.64;77.05;101241.81;125392;1099;104272;-80
2024/02/21 07:23:52;;;;;;;28.53;13.63;;;;;;;5.78;77.16;101241.05;125344;1099;103084;-79
2024/02/21 07:26:23;;;;;;;29.90;14.70;;;;;;;5.88;77.09;101238.24;125085;1099;104214;-80
2024/02/21 07:28:58;;;;;;;28.73;14.27;;;;;;;5.94;76.69;101237.76;125307;1099;104172;-80
2024/02/21 07:31:29;;;;;;;29.27;13.97;;;;;;;5.97;76.85;101237.07;125365;1099;104400;-81
2024/02/21 07:34:01;;;;;;;31.87;14.50;;;;;;;6.03;77.35;101241.00;125092;1099;104226;-81
2024/02/21 07:36:32;;;;;;;27.57;12.93;;;;;;;6.13;76.63;101245.11;125349;1099;104165;-82
2024/02/21 07:39:04;;;;;;;33.70;14.50;;;;;;;6.26;76.92;101236.38;125256;1099;104252;-81
2024/02/21 07:41:35;;;;;;;33.23;14.63;;;;;;;6.39;77.10;101249.41;125321;1099;104229;-81
2024/02/21 07:44:07;;;;;;;30.27;14.23;;;;;;;6.51;76.84;101245.78;125248;1099;104367;-80
2024/02/21 07:46:38;;;;;;;32.57;15.43;;;;;;;6.64;76.93;101250.98;125423;1099;102236;-81
2024/02/21 07:49:09;;;;;;;31.70;14.37;;;;;;;6.76;77.06;101248.23;124802;1098;103057;-81
2024/02/21 07:51:42;;;;;;;36.27;14.47;;;;;;;6.94;77.21;101245.88;125149;1099;104161;-79
2024/02/21 07:54:14;;;;;;;35.63;14.40;;;;;;;7.10;76.95;101248.62;125259;1099;104220;-80
2024/02/21 07:56:47;;;;;;;32.20;14.70;;;;;;;7.25;77.19;101243.45;125942;1099;102602;-79
2024/02/21 07:59:21;;;;;;;28.55;13.80;;;;;;;7.34;76.50;101244.01;126255;1098;102878;-79
2024/02/21 08:01:53;;;;;;;27.20;13.53;;;;;;;7.45;76.72;101239.44;125292;1098;102422;-78
2024/02/21 08:04:24;;;;;;;29.47;13.20;;;;;;;7.54;76.86;101239.98;125415;1099;104195;-81
2024/02/21 08:07:01;;;;;;;28.80;14.63;;;;;;;7.63;76.74;101234.39;125882;1099;104201;-79
2024/02/21 08:09:37;;;;;;;33.07;13.30;;;;;;;7.71;76.88;101238.38;125092;1099;104303;-79
2024/02/21 08:12:10;;;;;;;28.57;13.20;;;;;;;7.80;76.23;101230.16;124858;1099;104387;-82
2024/02/21 08:14:41;;;;;;;25.97;13.17;;;;;;;7.86;76.41;101230.52;125537;1099;103127;-81
2024/02/21 08:17:14;;;;;;;29.60;13.77;;;;;;;7.95;76.50;101224.02;125430;1099;103432;-81
2024/02/21 08:19:46;;;;;;;28.87;13.77;;;;;;;8.03;76.62;101231.50;126289;1099;102883;-81
2024/02/21 08:22:20;;;;;;;28.05;13.45;;;;;;;8.11;76.72;101226.72;125413;1099;104198;-79
2024/02/21 08:24:53;;;;;;;29.97;13.80;;;;;;;8.20;76.46;101229.86;125204;1098;104354;-85
2024/02/21 08:27:25;;;;;;;42.73;14.60;;;;;;;8.31;76.74;101229.58;125029;1099;104226;-81
2024/02/21 08:29:56;;;;;;;31.73;14.53;;;;;;;8.40;76.25;101235.33;125536;1098;104204;-78
2024/02/21 08:32:30;;;;;;;30.33;13.63;;;;;;;8.44;75.83;101221.62;124868;1099;103944;-83
2024/02/21 08:35:01;;;;;;;26.87;13.03;;;;;;;8.47;75.68;101234.87;124730;1099;104415;-83
2024/02/21 08:37:34;;;;;;;27.97;12.93;;;;;;;8.57;75.88;101231.03;125092;1099;103408;-79
2024/02/21 08:40:09;;;;;;;26.82;13.40;;;;;;;8.64;75.66;101231.47;124640;1099;104280;-80
2024/02/21 08:42:41;;;;;;;26.67;13.87;;;;;;;8.72;76.02;101231.89;126848;1099;102332;-80
2024/02/21 08:45:13;;;;;;;26.90;14.10;;;;;;;8.83;76.13;101229.86;126300;1099;103726;-78
2024/02/21 08:47:45;;;;;;;26.03;13.53;;;;;;;8.93;75.52;101232.17;126983;1099;102718;-77
2024/02/21 08:50:21;;;;;;;27.63;13.33;;;;;;;9.07;76.23;101226.75;126213;1098;102745;-81
2024/02/21 08:52:56;;;;;;;27.50;12.97;;;;;;;9.20;75.67;101229.22;126725;1098;102699;-78
2024/02/21 08:55:28;;;;;;;25.57;12.90;;;;;;;9.30;75.01;101230.59;125879;1098;102799;-81
2024/02/21 08:57:59;;;;;;;27.27;13.57;;;;;;;9.39;74.77;101228.45;125111;1099;104341;-82
2024/02/21 09:00:31;;;;;;;25.10;12.97;;;;;;;9.48;74.57;101231.55;125079;1099;104185;-80
2024/02/21 09:03:06;;;;;;;27.53;13.70;;;;;;;9.61;74.91;101233.08;125132;1098;102593;-78
2024/02/21 09:05:41;;;;;;;25.93;12.40;;;;;;;9.84;74.01;101238.60;124978;1099;102823;-80
2024/02/21 09:08:13;;;;;;;23.60;12.83;;;;;;;9.89;74.89;101237.10;125047;1099;104229;-79
2024/02/21 09:10:45;;;;;;;25.20;12.70;;;;;;;9.97;74.53;101234.87;125123;1098;102487;-79
2024/02/21 09:13:17;;;;;;;28.17;13.37;;;;;;;10.03;74.48;101233.44;124955;1099;104316;-78
2024/02/21 09:15:49;;;;;;;24.27;12.57;;;;;;;10.13;74.37;101232.19;124971;1099;104217;-80
2024/02/21 09:18:23;;;;;;;25.73;13.50;;;;;;;10.22;74.30;101234.34;125124;1099;104386;-80
2024/02/21 09:20:55;;;;;;;;;;;;;;;10.29;73.10;101227.70;124809;1099;102730;-80
2024/02/21 09:23:31;;;;;;;31.83;14.67;;;;;;;10.34;74.32;101228.84;125657;1099;104216;-80
2024/02/21 09:26:13;;;;;;;31.80;14.55;;;;;;;10.40;74.16;101227.41;125759;1099;104344;-80
2024/02/21 09:28:52;;;;;;;26.20;12.83;;;;;;;10.46;73.91;101225.92;124916;1099;102846;-77
2024/02/21 09:31:25;;;;;;;26.83;13.80;;;;;;;10.47;73.79;101226.00;125111;1099;104229;-78
2024/02/21 09:33:57;;;;;;;27.43;13.93;;;;;;;10.52;73.76;101223.59;125124;1099;103324;-78
2024/02/21 09:36:30;;;;;;;26.27;14.03;;;;;;;10.55;73.42;101218.45;124653;1102;104252;-78
2024/02/21 09:39:01;;;;;;;26.20;13.63;;;;;;;10.57;73.46;101219.45;125077;1099;104345;-77
2024/02/21 09:41:36;;;;;;;29.40;14.10;;;;;;;10.55;72.74;101219.38;124969;1098;104270;-79
2024/02/21 09:44:10;;;;;;;27.90;13.40;;;;;;;10.56;73.21;101210.66;124826;1099;104185;-78
2024/02/21 09:46:53;;;;;;;29.00;13.43;;;;;;;10.58;73.06;101210.73;125280;1099;104160;-79
2024/02/21 09:49:33;;;;;;;25.87;13.43;;;;;;;10.60;72.86;101207.36;125163;1099;102663;-79
2024/02/21 09:52:10;;;;;;;29.00;13.67;;;;;;;10.58;72.57;101211.65;125085;1099;104361;-80
2024/02/21 09:54:44;;;;;;;28.87;13.57;;;;;;;10.58;72.85;101214.27;124978;1099;104034;-78
2024/02/21 09:57:16;;;;;;;24.57;12.90;;;;;;;10.57;72.26;101212.46;125123;1099;104240;-79
2024/02/21 09:59:47;;;;;;;28.00;13.10;;;;;;;10.54;71.99;101206.18;125137;1099;104175;-79
2024/02/21 10:02:20;;;;;;;28.67;13.40;;;;;;;10.55;72.57;101207.95;125162;1099;104248;-79
2024/02/21 10:04:51;;;;;;;26.47;12.83;;;;;;;10.57;72.18;101201.08;125901;1099;102781;-80
2024/02/21 10:07:25;;;;;;;24.03;12.57;;;;;;;10.55;71.52;101198.38;116600;1099;10000976;-79
2024/02/21 10:10:04;;;;;;;26.80;13.33;;;;;;;10.54;71.80;101195.69;125058;1099;102815;-78
2024/02/21 10:12:48;;;;;;;28.20;14.27;;;;;;;10.55;71.97;101192.21;125000;1099;104286;-78
2024/02/21 10:15:25;;;;;;;28.33;14.37;;;;;;;10.56;71.72;101183.52;124479;1099;104220;-79
2024/02/21 10:18:03;;;;;;;25.70;12.87;;;;;;;10.57;71.48;101191.47;124947;1099;104369;-78
2024/02/21 10:20:34;;;;;;;25.70;13.60;;;;;;;10.62;71.78;101191.69;125098;1099;104198;-78
2024/02/21 10:23:09;;;;;;;25.73;13.23;;;;;;;10.66;71.67;101183.14;125068;1099;104249;-78
2024/02/21 10:25:45;;;;;;;27.13;13.40;;;;;;;10.71;71.87;101178.98;125126;1099;104262;-79
2024/02/21 10:28:23;;;;;;;26.60;13.10;;;;;;;10.77;71.95;101175.75;124584;1100;104217;-78
2024/02/21 10:30:56;;;;;;;29.70;14.20;;;;;;;10.83;71.67;101178.66;124781;1099;104165;-78
2024/02/21 10:33:28;;;;;;;25.40;12.67;;;;;;;10.90;71.59;101174.58;125272;1099;103163;-79
2024/02/21 10:36:09;;;;;;;35.53;13.50;;;;;;;10.95;71.30;101173.05;125001;1100;103289;-79
2024/02/21 10:38:41;;;;;;;25.17;13.37;;;;;;;10.98;71.10;101173.19;125412;1099;104392;-80
2024/02/21 10:41:15;;;;;;;24.93;13.53;;;;;;;11.06;71.05;101165.65;125503;1099;104076;-80
2024/02/21 10:43:51;;;;;;;27.20;13.37;;;;;;;11.13;71.11;101165.10;125266;1099;104086;-79
2024/02/21 10:46:25;;;;;;;23.67;12.43;;;;;;;11.20;70.94;101163.63;125220;1099;104195;-79
2024/02/21 10:49:08;;;;;;;25.20;13.10;;;;;;;11.27;70.92;101163.97;126164;1099;104331;-79
2024/02/21 10:51:47;;;;;;;26.33;13.80;;;;;;;11.31;70.90;101164.98;126292;1099;101584;-78
2024/02/21 10:54:39;;;;;;;27.90;14.03;;;;;;;11.37;70.18;101153.86;125902;1099;103260;-78
2024/02/21 10:57:11;;;;;;;27.23;13.13;;;;;;;11.43;70.75;101151.49;125032;1099;104220;-79
2024/02/21 10:59:44;;;;;;;29.03;14.80;;;;;;;11.45;70.64;101150.73;125184;1098;102743;-78
2024/02/21 11:02:24;;;;;;;27.20;14.30;;;;;;;11.47;69.80;101146.43;125208;1099;104293;-79
2024/02/21 11:05:04;;;;;;;28.63;15.40;;;;;;;11.48;70.29;101148.23;125166;1099;104342;-78
2024/02/21 11:07:39;;;;;;;27.48;14.75;;;;;;;11.44;70.06;101127.02;125191;1099;104161;-79
2024/02/21 11:10:24;;;;;;;27.27;14.85;;;;;;;11.55;70.27;101136.24;125175;1099;112219;-79
2024/02/21 11:13:09;;;;;;;30.10;15.57;;;;;;;11.57;70.03;101131.05;125187;1099;104264;-79
2024/02/21 11:15:42;;;;;;;30.47;16.07;;;;;;;11.63;69.49;101129.56;126803;1099;103631;-79
2024/02/21 11:18:23;;;;;;;29.05;15.23;;;;;;;11.65;69.11;101127.00;126460;1099;102586;-79
2024/02/21 11:20:55;;;;;;;27.73;15.40;;;;;;;11.69;68.91;101129.81;126107;1099;103029;-79
2024/02/21 11:23:30;;;;;;;26.87;15.37;;;;;;;11.72;69.42;101118.55;126431;1099;102717;-79